createdAt,value
2017-10-23T09:07:27.413Z,52.62
2017-10-23T09:07:59.511Z,52.81
2017-10-23T09:08:31.552Z,52.91
2017-10-23T09:09:03.680Z,52.53
2017-10-23T09:09:35.799Z,52.53
2017-10-23T09:10:07.971Z,52.72
2017-10-23T09:10:40.075Z,53.01
2017-10-23T09:11:12.225Z,52.81
2017-10-23T09:11:44.360Z,52.72
2017-10-23T09:12:16.553Z,52.81
2017-10-23T09:12:48.710Z,53.01
2017-10-23T09:13:20.829Z,52.91
2017-10-23T09:13:53.003Z,53.01
2017-10-23T09:14:25.131Z,52.72
2017-10-23T09:14:57.153Z,53.01
2017-10-23T09:15:29.277Z,53.01
2017-10-23T09:16:01.507Z,53.01
2017-10-23T09:16:33.656Z,53.01
2017-10-23T09:17:05.846Z,53.01
2017-10-23T09:17:37.934Z,53.01
2017-10-23T09:18:10.105Z,52.72
2017-10-23T09:18:42.290Z,53.01
2017-10-23T09:19:14.396Z,52.91
2017-10-23T09:19:46.588Z,52.91
2017-10-23T09:20:19.001Z,52.91
2017-10-23T09:20:54.469Z,52.91
2017-10-23T09:21:26.803Z,52.72
2017-10-23T09:21:59.010Z,52.91
2017-10-23T09:22:31.132Z,52.81
2017-10-23T09:23:03.214Z,53.01
2017-10-23T09:23:35.381Z,52.72
2017-10-23T09:24:07.649Z,52.91
2017-10-23T09:24:39.901Z,52.81
2017-10-23T09:25:12.032Z,53.01
2017-10-23T09:25:44.166Z,52.72
2017-10-23T09:26:16.371Z,52.72
2017-10-23T09:26:48.459Z,52.62
2017-10-23T09:27:20.529Z,52.81
2017-10-23T09:27:52.652Z,52.62
2017-10-23T09:28:24.723Z,52.81
2017-10-23T09:28:56.892Z,52.72
2017-10-23T09:29:29.064Z,52.91
2017-10-23T09:30:01.186Z,52.81
2017-10-23T09:30:33.394Z,52.72
2017-10-23T09:31:05.502Z,53.11
2017-10-23T09:31:37.711Z,52.91
2017-10-23T09:32:09.925Z,52.91
2017-10-23T09:32:42.066Z,52.81
2017-10-23T09:33:14.254Z,52.62
2017-10-23T09:33:46.453Z,53.01
2017-10-23T09:34:18.529Z,52.72
2017-10-23T09:34:50.629Z,52.91
2017-10-23T09:35:22.805Z,52.81
2017-10-23T09:35:55.023Z,53.01
2017-10-23T09:36:27.277Z,52.81
2017-10-23T09:36:59.439Z,52.91
2017-10-23T09:37:31.640Z,53.01
2017-10-23T09:38:03.793Z,52.91
2017-10-23T09:38:36.108Z,53.11
2017-10-23T09:39:08.206Z,53.11
2017-10-23T09:39:40.335Z,52.72
2017-10-23T09:40:12.532Z,52.62
2017-10-23T09:40:44.801Z,53.01
2017-10-23T09:41:16.922Z,53.01
2017-10-23T09:41:49.061Z,52.81
2017-10-23T09:42:21.154Z,52.81
2017-10-23T09:42:53.283Z,52.72
2017-10-23T09:43:25.415Z,53.01
2017-10-23T09:43:57.596Z,52.81
2017-10-23T09:44:29.694Z,53.11
2017-10-23T09:45:01.877Z,52.72
2017-10-23T09:45:34.064Z,52.72
2017-10-23T09:46:06.215Z,52.81
2017-10-23T09:46:38.329Z,52.91
2017-10-23T09:47:10.495Z,53.01
2017-10-23T09:47:42.669Z,53.01
2017-10-23T09:48:14.822Z,52.72
2017-10-23T09:48:46.924Z,52.81
2017-10-23T09:49:19.102Z,52.81
2017-10-23T09:49:51.193Z,52.72
2017-10-23T09:50:23.306Z,52.81
2017-10-23T09:50:55.503Z,52.62
2017-10-23T09:51:27.622Z,52.91
2017-10-23T09:51:59.751Z,52.72
2017-10-23T09:52:31.846Z,53.11
2017-10-23T09:53:04.119Z,52.62
2017-10-23T09:53:36.333Z,52.72
2017-10-23T09:54:08.434Z,52.81
2017-10-23T09:54:40.556Z,52.91
2017-10-23T09:55:12.802Z,53.01
2017-10-23T09:55:44.926Z,52.72
2017-10-23T09:56:17.019Z,52.62
2017-10-23T09:56:49.272Z,52.81
2017-10-23T09:57:21.470Z,52.81
2017-10-23T09:57:54.461Z,52.72
2017-10-23T09:58:26.573Z,52.62
2017-10-23T09:58:58.611Z,52.91
2017-10-23T09:59:30.840Z,53.01
2017-10-23T10:00:03.090Z,52.91
2017-10-23T10:00:35.267Z,52.81
2017-10-23T10:01:07.455Z,52.72
2017-10-23T10:01:39.611Z,52.91
2017-10-23T10:02:11.756Z,53.01
2017-10-23T10:02:44.062Z,52.91
2017-10-23T10:03:16.119Z,52.72
2017-10-23T10:03:48.271Z,52.91
2017-10-23T10:04:20.396Z,53.01
2017-10-23T10:04:52.641Z,52.91
2017-10-23T10:05:24.829Z,52.72
2017-10-23T10:05:57.048Z,52.62
2017-10-23T10:06:29.226Z,52.91
2017-10-23T10:07:01.439Z,52.72
2017-10-23T10:07:33.658Z,53.11
2017-10-23T10:08:05.907Z,52.72
2017-10-23T10:08:38.209Z,52.72
2017-10-23T10:09:10.299Z,52.81
2017-10-23T10:09:42.481Z,52.91
2017-10-23T10:10:14.634Z,52.91
2017-10-23T10:10:46.777Z,52.62
2017-10-23T10:11:18.894Z,52.62
2017-10-23T10:11:51.003Z,53.01
2017-10-23T10:12:23.263Z,52.62
2017-10-23T10:12:55.474Z,53.01
2017-10-23T10:13:27.606Z,52.81
2017-10-23T10:13:59.928Z,53.01
2017-10-23T10:14:32.136Z,52.62
2017-10-23T10:15:04.331Z,52.72
2017-10-23T10:15:36.355Z,52.53
2017-10-23T10:16:08.513Z,53.01
2017-10-23T10:16:40.700Z,52.72
2017-10-23T10:17:12.778Z,52.53
2017-10-23T10:17:44.926Z,53.01
2017-10-23T10:18:17.082Z,52.91
2017-10-23T10:18:49.172Z,52.53
2017-10-23T10:19:21.319Z,52.53
2017-10-23T10:19:53.358Z,52.81
2017-10-23T10:20:25.582Z,52.91
2017-10-23T10:20:57.853Z,52.53
2017-10-23T10:21:30.012Z,52.62
2017-10-23T10:22:02.200Z,52.91
2017-10-23T10:22:34.396Z,52.91
2017-10-23T10:23:06.476Z,52.91
2017-10-23T10:23:38.662Z,52.91
2017-10-23T10:24:10.744Z,52.65
2017-10-23T10:24:43.029Z,53.13
2017-10-23T10:25:15.152Z,53.13
2017-10-23T10:25:47.462Z,52.81
2017-10-23T10:26:19.610Z,52.94
2017-10-23T10:26:51.841Z,53.11
2017-10-23T10:27:23.979Z,52.45
2017-10-23T10:27:56.129Z,52.65
2017-10-23T10:28:28.462Z,52.75
2017-10-23T10:29:00.504Z,52.36
2017-10-23T10:29:32.676Z,52.55
2017-10-23T10:30:04.963Z,52.65
2017-10-23T10:30:37.095Z,52.36
2017-10-23T10:31:09.486Z,52.75
2017-10-23T10:31:41.766Z,52.17
2017-10-23T10:32:14.049Z,52.65
2017-10-23T10:32:46.255Z,52.65
2017-10-23T10:33:18.441Z,52.45
2017-10-23T10:33:50.599Z,52.45
2017-10-23T10:34:22.719Z,52.36
2017-10-23T10:34:54.850Z,52.45
2017-10-23T10:35:27.007Z,52.36
2017-10-23T10:35:59.107Z,52.75
2017-10-23T10:36:31.202Z,52.75
2017-10-23T10:37:03.362Z,52.26
2017-10-23T10:37:35.737Z,52.84
2017-10-23T10:38:09.190Z,52.36
2017-10-23T10:38:43.176Z,52.65
2017-10-23T10:39:15.534Z,52.84
2017-10-23T10:39:48.527Z,52.45
2017-10-23T10:40:26.702Z,52.45
2017-10-23T10:41:00.041Z,52.75
2017-10-23T10:41:32.373Z,52.45
2017-10-23T10:42:04.960Z,52.26
2017-10-23T10:42:37.200Z,52.45
2017-10-23T10:43:10.126Z,52.45
2017-10-23T10:43:42.272Z,52.45
2017-10-23T10:44:14.578Z,52.55
2017-10-23T10:44:47.269Z,52.26
2017-10-23T10:45:20.165Z,52.75
2017-10-23T10:45:52.419Z,52.75
2017-10-23T10:46:24.605Z,52.75
2017-10-23T10:46:56.786Z,52.75
2017-10-23T10:47:28.936Z,52.26
2017-10-23T10:48:01.066Z,52.75
2017-10-23T10:48:33.451Z,52.36
2017-10-23T10:49:05.671Z,52.26
2017-10-23T10:49:37.846Z,52.75
2017-10-23T10:50:10.241Z,52.26
2017-10-23T10:50:43.004Z,52.84
2017-10-23T10:51:15.371Z,52.75
2017-10-23T10:51:47.498Z,52.75
2017-10-23T10:52:19.837Z,52.36
2017-10-23T10:52:51.966Z,52.65
2017-10-23T10:53:24.289Z,52.65
2017-10-23T10:53:56.820Z,52.36
2017-10-23T10:54:29.061Z,52.75
2017-10-23T10:55:01.316Z,52.75
2017-10-23T10:55:33.528Z,52.26
2017-10-23T10:56:05.916Z,52.84
2017-10-23T10:56:38.007Z,52.84
2017-10-23T10:57:10.193Z,52.45
2017-10-23T10:57:42.321Z,52.26
2017-10-23T10:58:14.527Z,52.75
2017-10-23T10:58:46.692Z,52.26
2017-10-23T10:59:18.885Z,52.26
2017-10-23T10:59:51.070Z,52.36
2017-10-23T11:00:23.408Z,52.55
2017-10-23T11:00:55.659Z,52.45
2017-10-23T11:01:29.362Z,52.45
2017-10-23T11:02:01.578Z,52.65
2017-10-23T11:02:33.744Z,52.65
2017-10-23T11:03:05.846Z,52.75
2017-10-23T11:03:38.072Z,52.36
2017-10-23T11:04:10.487Z,52.55
2017-10-23T11:04:42.751Z,52.75
2017-10-23T11:05:14.875Z,52.55
2017-10-23T11:05:46.972Z,52.84
2017-10-23T11:06:19.238Z,52.75
2017-10-23T11:06:51.573Z,52.65
2017-10-23T11:07:23.981Z,52.45
2017-10-23T11:07:56.145Z,52.84
2017-10-23T11:08:29.294Z,52.75
2017-10-23T11:09:01.335Z,52.65
2017-10-23T11:09:33.555Z,52.94
2017-10-23T11:10:05.735Z,52.75
2017-10-23T11:10:38.118Z,52.75
2017-10-23T11:11:10.391Z,52.36
2017-10-23T11:11:42.488Z,52.55
2017-10-23T11:12:14.742Z,52.65
2017-10-23T11:12:47.033Z,52.36
2017-10-23T11:13:19.359Z,52.75
2017-10-23T11:13:51.791Z,52.75
2017-10-23T11:14:23.962Z,52.72
2017-10-23T11:14:56.804Z,52.55
2017-10-23T11:15:29.038Z,52.94
2017-10-23T11:16:01.224Z,53.13
2017-10-23T11:16:33.379Z,53.03
2017-10-23T11:17:05.520Z,53.11
2017-10-23T11:17:37.725Z,53.11
2017-10-23T11:18:09.879Z,52.91
2017-10-23T11:18:42.000Z,52.72
2017-10-23T11:19:14.252Z,52.53
2017-10-23T11:19:46.308Z,52.72
2017-10-23T11:20:18.535Z,52.91
2017-10-23T11:20:50.848Z,52.53
2017-10-23T11:21:23.065Z,52.53
2017-10-23T11:21:55.235Z,52.81
2017-10-23T11:22:27.444Z,52.72
2017-10-23T11:22:59.653Z,52.91
2017-10-23T11:23:31.726Z,52.91
2017-10-23T11:24:03.945Z,53.01
2017-10-23T11:24:36.091Z,53.01
2017-10-23T11:25:08.284Z,52.91
2017-10-23T11:25:40.471Z,52.72
2017-10-23T11:26:12.667Z,53.01
2017-10-23T11:26:44.802Z,52.62
2017-10-23T11:27:17.000Z,52.91
2017-10-23T11:27:49.147Z,52.72
2017-10-23T11:28:21.426Z,53.01
2017-10-23T11:28:53.568Z,52.81
2017-10-23T11:29:25.847Z,53.01
2017-10-23T11:29:58.080Z,53.01
2017-10-23T11:30:30.272Z,52.81
2017-10-23T11:31:02.423Z,53.01
2017-10-23T11:31:34.501Z,53.01
2017-10-23T11:32:06.681Z,52.53
2017-10-23T11:32:38.841Z,52.81
2017-10-23T11:33:10.917Z,53.01
2017-10-23T11:33:43.065Z,52.62
2017-10-23T11:34:15.200Z,53.01
2017-10-23T11:34:47.278Z,52.62
2017-10-23T11:35:19.347Z,52.81
2017-10-23T11:35:51.435Z,52.62
2017-10-23T11:36:23.659Z,52.62
2017-10-23T11:36:55.801Z,52.81
2017-10-23T11:37:27.896Z,52.72
2017-10-23T11:38:00.083Z,52.91
2017-10-23T11:38:32.102Z,52.91
2017-10-23T11:39:04.319Z,52.72
2017-10-23T11:39:36.407Z,52.72
2017-10-23T11:40:08.482Z,52.91
2017-10-23T11:40:40.615Z,52.91
2017-10-23T11:41:12.771Z,52.53
2017-10-23T11:41:44.879Z,52.72
2017-10-23T11:42:16.937Z,52.72
2017-10-23T11:42:49.017Z,52.81
2017-10-23T11:43:21.140Z,53.01
2017-10-23T11:43:53.392Z,52.72
2017-10-23T11:44:25.410Z,53.01
2017-10-23T11:44:57.646Z,52.72
2017-10-23T11:45:29.863Z,52.91
2017-10-23T11:46:01.999Z,53.01
2017-10-23T11:46:34.151Z,52.91
2017-10-23T11:47:06.403Z,52.91
2017-10-23T11:47:38.608Z,52.91
2017-10-23T11:48:10.695Z,52.62
2017-10-23T11:48:42.793Z,52.91
2017-10-23T11:49:14.842Z,52.62
2017-10-23T11:49:46.873Z,52.91
2017-10-23T11:50:19.102Z,53.01
2017-10-23T11:50:51.176Z,52.53
2017-10-23T11:51:23.395Z,53.11
2017-10-23T11:51:55.440Z,52.75
2017-10-23T11:52:27.517Z,52.33
2017-10-23T11:52:59.586Z,52.45
2017-10-23T11:53:31.683Z,52.62
2017-10-23T11:54:03.869Z,52.75
2017-10-23T11:54:36.048Z,52.55
2017-10-23T11:55:08.106Z,52.65
2017-10-23T11:55:40.310Z,52.75
2017-10-23T11:56:12.404Z,52.65
2017-10-23T11:56:44.484Z,52.84
2017-10-23T11:57:16.747Z,52.75
2017-10-23T11:57:48.819Z,52.55
2017-10-23T11:58:21.016Z,52.94
2017-10-23T11:58:53.198Z,53.13
2017-10-23T11:59:25.294Z,53.13
2017-10-23T11:59:57.480Z,52.55
2017-10-23T12:00:29.564Z,52.62
2017-10-23T12:01:01.593Z,52.94
2017-10-23T12:01:33.831Z,52.75
2017-10-23T12:02:06.107Z,52.65
2017-10-23T12:02:38.348Z,52.84
2017-10-23T12:03:10.370Z,53.03
2017-10-23T12:03:42.513Z,53.03
2017-10-23T12:04:14.606Z,52.65
2017-10-23T12:04:46.628Z,52.75
2017-10-23T12:05:18.727Z,52.84
2017-10-23T12:05:50.841Z,52.65
2017-10-23T12:06:23.061Z,52.94
2017-10-23T12:06:55.169Z,52.84
2017-10-23T12:07:27.459Z,52.75
2017-10-23T12:07:59.670Z,52.94
2017-10-23T12:08:31.811Z,52.94
2017-10-23T12:09:03.873Z,52.91
2017-10-23T12:09:35.902Z,52.94
2017-10-23T12:10:08.048Z,52.55
2017-10-23T12:10:40.262Z,52.94
2017-10-23T12:11:12.355Z,52.75
2017-10-23T12:11:44.512Z,52.75
2017-10-23T12:12:16.748Z,52.94
2017-10-23T12:12:48.993Z,52.94
2017-10-23T12:13:21.139Z,52.65
2017-10-23T12:13:53.351Z,52.75
2017-10-23T12:14:25.533Z,52.65
2017-10-23T12:14:57.794Z,53.03
2017-10-23T12:15:29.971Z,52.94
2017-10-23T12:16:02.057Z,53.03
2017-10-23T12:16:34.271Z,52.94
2017-10-23T12:17:06.466Z,52.65
2017-10-23T12:17:38.605Z,52.75
2017-10-23T12:18:10.743Z,52.84
2017-10-23T12:18:42.926Z,52.84
2017-10-23T12:19:15.258Z,53.03
2017-10-23T12:19:47.342Z,52.53
2017-10-23T12:20:19.551Z,52.94
2017-10-23T12:20:51.799Z,52.72
2017-10-23T12:21:23.983Z,52.91
2017-10-23T12:21:56.136Z,52.94
2017-10-23T12:22:28.215Z,52.75
2017-10-23T12:23:00.401Z,52.75
2017-10-23T12:23:32.533Z,52.75
2017-10-23T12:24:04.571Z,52.75
2017-10-23T12:24:36.767Z,52.62
2017-10-23T12:25:08.844Z,52.81
2017-10-23T12:25:40.879Z,52.75
2017-10-23T12:26:13.016Z,52.75
2017-10-23T12:26:45.198Z,53.03
2017-10-23T12:27:17.332Z,52.81
2017-10-23T12:27:49.549Z,52.91
2017-10-23T12:28:21.684Z,53.01
2017-10-23T12:28:53.779Z,52.65
2017-10-23T12:29:25.945Z,53.03
2017-10-23T12:29:58.089Z,53.01
2017-10-23T12:30:30.304Z,52.72
2017-10-23T12:31:03.338Z,53.03
2017-10-23T12:31:35.495Z,52.81
2017-10-23T12:32:07.570Z,52.72
2017-10-23T12:32:39.659Z,52.84
2017-10-23T12:33:11.855Z,52.72
2017-10-23T12:33:43.948Z,52.75
2017-10-23T12:34:16.141Z,52.91
2017-10-23T12:34:48.350Z,52.94
2017-10-23T12:35:20.465Z,52.94
2017-10-23T12:35:52.682Z,53.03
2017-10-23T12:36:24.787Z,52.81
2017-10-23T12:36:56.991Z,53.03
2017-10-23T12:37:29.167Z,53.01
2017-10-23T12:38:01.346Z,52.72
2017-10-23T12:38:33.412Z,52.94
2017-10-23T12:39:05.578Z,52.91
2017-10-23T12:39:37.754Z,52.94
2017-10-23T12:40:09.834Z,52.75
2017-10-23T12:40:41.974Z,52.65
2017-10-23T12:41:14.030Z,53.03
2017-10-23T12:41:46.253Z,53.03
2017-10-23T12:42:18.509Z,52.84
2017-10-23T12:42:50.595Z,53.03
2017-10-23T12:43:22.701Z,52.81
2017-10-23T12:43:54.861Z,53.13
2017-10-23T12:44:26.946Z,53.01
2017-10-23T12:44:59.038Z,53.13
2017-10-23T12:45:31.238Z,53.03
2017-10-23T12:46:03.371Z,52.84
2017-10-23T12:46:35.571Z,52.65
2017-10-23T12:47:07.604Z,53.03
2017-10-23T12:47:39.747Z,52.94
2017-10-23T12:48:11.815Z,52.75
2017-10-23T12:48:44.059Z,53.03
2017-10-23T12:49:16.245Z,52.84
2017-10-23T12:49:48.498Z,52.94
2017-10-23T12:50:20.567Z,52.84
2017-10-23T12:50:52.796Z,52.84
2017-10-23T12:51:24.940Z,52.84
2017-10-23T12:51:57.030Z,52.55
2017-10-23T12:52:29.282Z,52.94
2017-10-23T12:53:01.369Z,52.84
2017-10-23T12:53:33.643Z,52.75
2017-10-23T12:54:05.706Z,52.75
2017-10-23T12:54:37.869Z,52.55
2017-10-23T12:55:09.948Z,53.03
2017-10-23T12:55:42.037Z,52.84
2017-10-23T12:56:14.204Z,53.03
2017-10-23T12:56:46.350Z,53.03
2017-10-23T12:57:18.653Z,53.03
2017-10-23T12:57:50.754Z,52.75
2017-10-23T12:58:22.858Z,52.75
2017-10-23T12:58:54.990Z,53.03
2017-10-23T12:59:27.240Z,53.03
2017-10-23T12:59:59.393Z,52.84
2017-10-23T13:00:31.474Z,52.75
2017-10-23T13:01:03.601Z,52.75
2017-10-23T13:01:35.683Z,52.84
2017-10-23T13:02:07.936Z,52.84
2017-10-23T13:02:40.077Z,52.94
2017-10-23T13:03:12.196Z,53.03
2017-10-23T13:03:44.265Z,52.94
2017-10-23T13:04:16.437Z,52.94
2017-10-23T13:04:48.701Z,53.13
2017-10-23T13:05:20.829Z,53.03
2017-10-23T13:05:52.925Z,53.13
2017-10-23T13:06:25.099Z,52.65
2017-10-23T13:06:57.292Z,52.84
2017-10-23T13:07:29.515Z,52.75
2017-10-23T13:08:01.702Z,52.75
2017-10-23T13:08:34.063Z,53.03
2017-10-23T13:09:06.170Z,52.75
2017-10-23T13:09:38.257Z,52.75
2017-10-23T13:10:10.554Z,52.94
2017-10-23T13:10:42.764Z,53.03
2017-10-23T13:11:14.956Z,53.13
2017-10-23T13:11:47.121Z,52.65
2017-10-23T13:12:19.233Z,52.65
2017-10-23T13:12:51.326Z,52.94
2017-10-23T13:13:23.398Z,52.65
2017-10-23T13:13:55.526Z,52.75
2017-10-23T13:14:27.622Z,52.94
2017-10-23T13:14:59.768Z,53.13
2017-10-23T13:15:31.896Z,52.55
2017-10-23T13:16:04.078Z,53.13
2017-10-23T13:16:36.140Z,52.94
2017-10-23T13:17:08.203Z,52.65
2017-10-23T13:17:40.365Z,53.03
2017-10-23T13:18:12.558Z,53.13
2017-10-23T13:18:44.566Z,53.13
2017-10-23T13:19:16.723Z,52.55
2017-10-23T13:19:48.880Z,53.03
2017-10-23T13:20:20.915Z,53.03
2017-10-23T13:20:53.036Z,53.03
2017-10-23T13:21:25.044Z,53.13
2017-10-23T13:21:57.132Z,53.13
2017-10-23T13:22:30.414Z,52.94
2017-10-23T13:23:02.598Z,52.84
2017-10-23T13:23:34.604Z,52.84
2017-10-23T13:24:06.767Z,52.94
2017-10-23T13:24:38.888Z,52.84
2017-10-23T13:25:11.102Z,53.13
2017-10-23T13:25:43.297Z,52.84
2017-10-23T13:26:15.436Z,53.13
2017-10-23T13:26:47.594Z,52.75
2017-10-23T13:27:19.745Z,52.75
2017-10-23T13:27:51.957Z,52.75
2017-10-23T13:28:23.985Z,52.65
2017-10-23T13:28:56.065Z,52.75
2017-10-23T13:29:28.277Z,52.75
2017-10-23T13:30:00.395Z,52.65
2017-10-23T13:30:32.610Z,52.84
2017-10-23T13:31:04.767Z,52.75
2017-10-23T13:31:36.973Z,52.65
2017-10-23T13:32:09.157Z,52.84
2017-10-23T13:32:41.391Z,52.55
2017-10-23T13:33:13.700Z,52.84
2017-10-23T13:33:45.722Z,52.84
2017-10-23T13:34:18.045Z,53.13
2017-10-23T13:34:50.065Z,53.13
2017-10-23T13:35:22.371Z,52.75
2017-10-23T13:35:54.591Z,53.33
2017-10-23T13:36:26.791Z,52.84
2017-10-23T13:36:58.974Z,52.75
2017-10-23T13:37:31.292Z,52.75
2017-10-23T13:38:03.483Z,53.23
2017-10-23T13:38:35.631Z,53.03
2017-10-23T13:39:07.747Z,52.94
2017-10-23T13:39:39.891Z,52.75
2017-10-23T13:40:12.078Z,53.03
2017-10-23T13:40:44.075Z,52.55
2017-10-23T13:41:16.326Z,52.84
2017-10-23T13:41:48.435Z,52.84
2017-10-23T13:42:20.683Z,52.94
2017-10-23T13:42:52.814Z,53.13
2017-10-23T13:43:25.029Z,52.94
2017-10-23T13:43:57.184Z,53.13
2017-10-23T13:44:29.407Z,53.03
2017-10-23T13:45:01.543Z,53.13
2017-10-23T13:45:33.816Z,53.23
2017-10-23T13:46:06.123Z,53.23
2017-10-23T13:46:38.292Z,52.75
2017-10-23T13:47:10.437Z,53.03
2017-10-23T13:47:42.584Z,53.33
2017-10-23T13:48:14.641Z,52.94
2017-10-23T13:48:46.870Z,52.94
2017-10-23T13:49:19.191Z,53.42
2017-10-23T13:49:51.339Z,53.03
2017-10-23T13:50:23.432Z,53.33
2017-10-23T13:50:55.554Z,52.94
2017-10-23T13:51:27.639Z,53.13
2017-10-23T13:51:59.787Z,53.42
2017-10-23T13:52:31.870Z,53.13
2017-10-23T13:53:04.001Z,53.13
2017-10-23T13:53:36.884Z,52.94
2017-10-23T13:54:08.950Z,53.33
2017-10-23T13:54:41.156Z,53.13
2017-10-23T13:55:13.317Z,53.33
2017-10-23T13:55:45.461Z,52.94
2017-10-23T13:56:17.586Z,52.94
2017-10-23T13:56:49.720Z,53.33
2017-10-23T13:57:21.770Z,52.94
2017-10-23T13:57:54.020Z,53.13
2017-10-23T13:58:26.214Z,53.33
2017-10-23T13:58:58.482Z,53.33
2017-10-23T13:59:30.689Z,53.13
2017-10-23T14:00:03.053Z,53.23
2017-10-23T14:00:35.179Z,53.42
2017-10-23T14:01:07.261Z,53.13
2017-10-23T14:01:39.324Z,53.42
2017-10-23T14:02:11.464Z,53.52
2017-10-23T14:02:43.715Z,53.42
2017-10-23T14:03:15.916Z,53.61
2017-10-23T14:03:48.075Z,53.42
2017-10-23T14:04:20.288Z,53.59
2017-10-23T14:04:52.482Z,53.52
2017-10-23T14:05:24.584Z,53.23
2017-10-23T14:05:56.754Z,53.59
2017-10-23T14:06:28.775Z,53.49
2017-10-23T14:07:00.991Z,53.49
2017-10-23T14:07:33.121Z,53.49
2017-10-23T14:08:05.197Z,53.11
2017-10-23T14:08:37.369Z,53.11
2017-10-23T14:09:09.618Z,53.11
2017-10-23T14:09:41.879Z,53.11
2017-10-23T14:10:14.006Z,53.2
2017-10-23T14:10:46.156Z,53.3
2017-10-23T14:11:18.365Z,53.59
2017-10-23T14:11:50.495Z,53.59
2017-10-23T14:12:22.585Z,53.49
2017-10-23T14:12:54.687Z,53.49
2017-10-23T14:13:26.755Z,53.59
2017-10-23T14:13:58.937Z,53.11
2017-10-23T14:14:31.011Z,53.3
2017-10-23T14:15:03.103Z,53.39
2017-10-23T14:15:35.200Z,53.59
2017-10-23T14:16:07.295Z,53.3
2017-10-23T14:16:39.524Z,53.49
2017-10-23T14:17:11.606Z,53.11
2017-10-23T14:17:43.796Z,53.2
2017-10-23T14:18:15.981Z,52.81
2017-10-23T14:18:48.109Z,53.01
2017-10-23T14:19:20.246Z,53.11
2017-10-23T14:19:52.369Z,53.49
2017-10-23T14:20:24.389Z,53.2
2017-10-23T14:20:56.534Z,53.39
2017-10-23T14:21:28.743Z,53.39
2017-10-23T14:22:00.758Z,53.11
2017-10-23T14:22:32.969Z,53.3
2017-10-23T14:23:05.143Z,53.11
2017-10-23T14:23:37.386Z,53.2
2017-10-23T14:24:09.525Z,53.2
2017-10-23T14:24:41.814Z,53.39
2017-10-23T14:25:13.900Z,53.39
2017-10-23T14:25:46.040Z,53.39
2017-10-23T14:26:18.169Z,53.3
2017-10-23T14:26:50.289Z,53.59
2017-10-23T14:27:22.413Z,52.91
2017-10-23T14:27:54.528Z,53.59
2017-10-23T14:28:26.759Z,53.11
2017-10-23T14:28:58.940Z,53.3
2017-10-23T14:29:31.039Z,53.3
2017-10-23T14:30:03.242Z,53.3
2017-10-23T14:30:35.437Z,53.01
2017-10-23T14:31:07.656Z,53.01
2017-10-23T14:31:39.796Z,53.3
2017-10-23T14:32:11.945Z,53.3
2017-10-23T14:32:44.256Z,53.39
2017-10-23T14:33:16.401Z,53.11
2017-10-23T14:33:48.550Z,53.3
2017-10-23T14:34:20.573Z,53.3
2017-10-23T14:34:52.720Z,53.39
2017-10-23T14:35:24.808Z,53.39
2017-10-23T14:35:57.046Z,53.59
2017-10-23T14:36:29.173Z,53.39
2017-10-23T14:37:01.351Z,53.3
2017-10-23T14:37:33.606Z,53.49
2017-10-23T14:38:05.690Z,53.2
2017-10-23T14:38:37.896Z,53.49
2017-10-23T14:39:10.024Z,53.2
2017-10-23T14:39:42.187Z,53.39
2017-10-23T14:40:14.196Z,53.59
2017-10-23T14:40:46.223Z,53.59
2017-10-23T14:41:18.558Z,53.59
2017-10-23T14:41:50.627Z,53.59
2017-10-23T14:42:22.819Z,53.39
2017-10-23T14:42:54.956Z,53.49
2017-10-23T14:43:27.152Z,53.49
2017-10-23T14:43:59.297Z,53.39
2017-10-23T14:44:31.438Z,53.39
2017-10-23T14:45:03.513Z,53.88
2017-10-23T14:45:35.718Z,53.49
2017-10-23T14:46:07.802Z,53.59
2017-10-23T14:46:39.968Z,53.3
2017-10-23T14:47:12.148Z,53.39
2017-10-23T14:47:44.281Z,53.49
2017-10-23T14:48:16.518Z,53.39
2017-10-23T14:48:48.802Z,53.49
2017-10-23T14:49:21.067Z,53.78
2017-10-23T14:49:53.259Z,53.49
2017-10-23T14:50:25.458Z,53.88
2017-10-23T14:50:57.602Z,53.78
2017-10-23T14:51:29.724Z,53.49
2017-10-23T14:52:01.861Z,53.88
2017-10-23T14:52:34.023Z,53.97
2017-10-23T14:53:06.342Z,53.88
2017-10-23T14:53:38.526Z,53.97
2017-10-23T14:54:10.598Z,53.49
2017-10-23T14:54:42.797Z,54.07
2017-10-23T14:55:15.060Z,54.07
2017-10-23T14:55:47.364Z,54.07
2017-10-23T14:56:19.515Z,54.07
2017-10-23T14:56:51.677Z,54.17
2017-10-23T14:57:23.746Z,53.59
2017-10-23T14:57:55.869Z,53.88
2017-10-23T14:58:28.000Z,53.97
2017-10-23T14:59:00.265Z,53.97
2017-10-23T14:59:32.411Z,53.59
2017-10-23T15:00:04.563Z,53.59
2017-10-23T15:00:36.723Z,53.88
2017-10-23T15:01:09.028Z,53.59
2017-10-23T15:01:41.788Z,53.97
2017-10-23T15:02:13.971Z,54.07
2017-10-23T15:02:46.153Z,54.07
2017-10-23T15:03:18.288Z,54.07
2017-10-23T15:03:50.457Z,54.07
2017-10-23T15:04:22.589Z,54.07
2017-10-23T15:04:54.592Z,53.39
2017-10-23T15:05:26.755Z,54.07
2017-10-23T15:05:58.949Z,53.78
2017-10-23T15:06:31.031Z,53.78
2017-10-23T15:07:03.098Z,53.49
2017-10-23T15:07:35.363Z,53.59
2017-10-23T15:08:07.572Z,53.88
2017-10-23T15:08:39.586Z,53.78
2017-10-23T15:09:11.787Z,53.49
2017-10-23T15:09:44.022Z,53.88
2017-10-23T15:10:16.038Z,53.39
2017-10-23T15:10:48.298Z,53.69
2017-10-23T15:11:20.479Z,53.88
2017-10-23T15:11:52.947Z,53.39
2017-10-23T15:12:25.038Z,54.07
2017-10-23T15:12:57.220Z,53.88
2017-10-23T15:13:29.484Z,53.88
2017-10-23T15:14:01.627Z,53.88
2017-10-23T15:14:33.700Z,53.69
2017-10-23T15:15:05.829Z,54.07
2017-10-23T15:15:37.964Z,54.17
2017-10-23T15:16:10.048Z,53.59
2017-10-23T15:16:42.308Z,53.3
2017-10-23T15:17:14.422Z,53.3
2017-10-23T15:17:46.656Z,54.27
2017-10-23T15:18:19.355Z,54.27
2017-10-23T15:18:51.415Z,53.78
2017-10-23T15:19:23.623Z,54.36
2017-10-23T15:19:55.765Z,54.36
2017-10-23T15:20:28.161Z,53.69
2017-10-23T15:21:00.341Z,53.88
2017-10-23T15:21:32.509Z,53.78
2017-10-23T15:22:04.658Z,53.69
2017-10-23T15:22:36.772Z,53.78
2017-10-23T15:23:08.927Z,53.78
2017-10-23T15:23:41.127Z,53.78
2017-10-23T15:24:13.248Z,53.39
2017-10-23T15:24:45.387Z,54.17
2017-10-23T15:25:17.483Z,54.17
2017-10-23T15:25:49.598Z,54.27
2017-10-23T15:26:21.690Z,53.88
2017-10-23T15:26:53.748Z,54.17
2017-10-23T15:27:25.991Z,53.88
2017-10-23T15:27:58.261Z,53.97
2017-10-23T15:28:30.362Z,53.59
2017-10-23T15:29:02.457Z,53.69
2017-10-23T15:29:34.492Z,54.07
2017-10-23T15:30:06.593Z,54.07
2017-10-23T15:30:38.744Z,53.59
2017-10-23T15:31:10.796Z,53.59
2017-10-23T15:31:43.105Z,54.07
2017-10-23T15:32:15.201Z,54.07
2017-10-23T15:32:47.283Z,54.07
2017-10-23T15:33:19.316Z,53.39
2017-10-23T15:33:51.471Z,54.07
2017-10-23T15:34:23.701Z,54.14
2017-10-23T15:34:55.893Z,53.78
2017-10-23T15:35:28.329Z,54.07
2017-10-23T15:36:00.519Z,53.78
2017-10-23T15:36:32.738Z,53.75
2017-10-23T15:37:04.927Z,53.78
2017-10-23T15:37:37.027Z,54.05
2017-10-23T15:38:09.398Z,53.97
2017-10-23T15:38:41.548Z,53.95
2017-10-23T15:39:13.716Z,53.75
2017-10-23T15:39:46.802Z,53.85
2017-10-23T15:40:18.818Z,53.75
2017-10-23T15:40:50.990Z,54.05
2017-10-23T15:41:23.099Z,53.75
2017-10-23T15:41:55.294Z,54.05
2017-10-23T15:42:27.562Z,53.85
2017-10-23T15:42:59.697Z,53.85
2017-10-23T15:43:31.881Z,53.85
2017-10-23T15:44:04.029Z,54.05
2017-10-23T15:44:36.068Z,54.05
2017-10-23T15:45:08.135Z,53.75
2017-10-23T15:45:40.230Z,54.05
2017-10-23T15:46:12.444Z,54.05
2017-10-23T15:46:44.655Z,53.95
2017-10-23T15:47:17.092Z,53.75
2017-10-23T15:47:49.298Z,53.88
2017-10-23T15:48:21.390Z,54.24
2017-10-23T15:48:53.480Z,53.95
2017-10-23T15:49:25.610Z,53.85
2017-10-23T15:49:57.802Z,53.95
2017-10-23T15:50:29.980Z,53.75
2017-10-23T15:51:02.265Z,54.33
2017-10-23T15:51:34.337Z,54.24
2017-10-23T15:52:06.914Z,53.85
2017-10-23T15:52:38.985Z,53.85
2017-10-23T15:53:11.059Z,54.33
2017-10-23T15:53:43.096Z,53.95
2017-10-23T15:54:15.283Z,54.24
2017-10-23T15:54:47.421Z,53.97
2017-10-23T15:55:19.693Z,53.85
2017-10-23T15:55:51.757Z,54.24
2017-10-23T15:56:23.845Z,53.95
2017-10-23T15:56:55.940Z,54.24
2017-10-23T15:57:28.089Z,54.24
2017-10-23T15:58:00.256Z,53.85
2017-10-23T15:58:32.342Z,53.75
2017-10-23T15:59:04.480Z,53.95
2017-10-23T15:59:36.680Z,53.85
2017-10-23T16:00:08.758Z,54.05
2017-10-23T16:00:41.007Z,54.33
2017-10-23T16:01:13.154Z,53.85
2017-10-23T16:01:45.307Z,53.75
2017-10-23T16:02:17.649Z,54.33